createdAt,value
2018-08-10T00:00:02.817Z,1019.65
2018-08-10T00:01:02.929Z,1019.64
2018-08-10T00:02:02.662Z,1019.72
2018-08-10T00:03:02.799Z,1019.75
2018-08-10T00:04:02.877Z,1019.77
2018-08-10T00:05:02.798Z,1019.81
2018-08-10T00:06:02.634Z,1019.85
2018-08-10T00:07:02.797Z,1019.89
2018-08-10T00:08:02.765Z,1019.94
2018-08-10T00:09:03.064Z,1020
2018-08-10T00:10:03.089Z,1020.05
2018-08-10T00:11:02.854Z,1020.03
2018-08-10T00:12:02.690Z,1020.07
2018-08-10T00:13:02.877Z,1020.1
2018-08-10T00:14:02.958Z,1020.12
2018-08-10T00:15:02.742Z,1020.19
2018-08-10T00:16:02.785Z,1020.17
2018-08-10T00:17:02.933Z,1020.19
2018-08-10T00:18:03.075Z,1020.26
2018-08-10T00:19:02.639Z,1020.3
2018-08-10T00:20:02.927Z,1020.28
2018-08-10T00:21:02.784Z,1020.3
2018-08-10T00:22:02.817Z,1020.36
2018-08-10T00:23:02.883Z,1020.38
2018-08-10T00:24:02.610Z,1020.37
2018-08-10T00:25:02.702Z,1020.41
2018-08-10T00:26:02.599Z,1020.38
2018-08-10T00:27:02.625Z,1020.4
2018-08-10T00:28:02.704Z,1020.43
2018-08-10T00:29:02.756Z,1020.4
2018-08-10T00:30:02.781Z,1020.43
2018-08-10T00:31:02.678Z,1020.47
2018-08-10T00:32:02.740Z,1020.46
2018-08-10T00:33:02.669Z,1020.49
2018-08-10T00:34:02.827Z,1020.54
2018-08-10T00:35:02.786Z,1020.53
2018-08-10T00:36:02.722Z,1020.62
2018-08-10T00:37:02.868Z,1020.65
2018-08-10T00:38:02.721Z,1020.64
2018-08-10T00:39:02.673Z,1020.66
2018-08-10T00:40:02.735Z,1020.67
2018-08-10T00:41:02.832Z,1020.77
2018-08-10T00:42:02.897Z,1020.72
2018-08-10T00:43:02.766Z,1020.76
2018-08-10T00:44:02.825Z,1020.78
2018-08-10T00:45:02.785Z,1020.83
2018-08-10T00:46:02.955Z,1020.75
2018-08-10T00:47:02.728Z,1020.81
2018-08-10T00:48:02.923Z,1020.8
2018-08-10T00:49:02.702Z,1020.79
2018-08-10T00:50:03.052Z,1020.81
2018-08-10T00:51:02.830Z,1020.84
2018-08-10T00:52:02.795Z,1020.84
2018-08-10T00:53:03.152Z,1020.89
2018-08-10T00:54:02.745Z,1020.91
2018-08-10T00:55:02.672Z,1020.88
2018-08-10T00:56:02.692Z,1020.88
2018-08-10T00:57:02.890Z,1020.82
2018-08-10T00:58:02.642Z,1020.89
2018-08-10T00:59:02.919Z,1020.91
2018-08-10T01:00:02.549Z,1020.91
2018-08-10T01:01:02.655Z,1020.87
2018-08-10T01:02:02.894Z,1020.87
2018-08-10T01:03:02.886Z,1020.93
2018-08-10T01:04:02.829Z,1020.95
2018-08-10T01:05:02.697Z,1020.99
2018-08-10T01:06:02.755Z,1020.99
2018-08-10T01:07:02.690Z,1021.04
2018-08-10T01:08:02.767Z,1021.05
2018-08-10T01:09:02.696Z,1021.06
2018-08-10T01:10:02.718Z,1021.06
2018-08-10T01:11:02.834Z,1021.07
2018-08-10T01:12:02.779Z,1021.09
2018-08-10T01:13:02.803Z,1021.11
2018-08-10T01:14:02.985Z,1021.1
2018-08-10T01:15:02.791Z,1021.1
2018-08-10T01:16:02.719Z,1021.18
2018-08-10T01:17:02.942Z,1021.15
2018-08-10T01:18:02.687Z,1021.2
2018-08-10T01:19:02.904Z,1021.19
2018-08-10T01:20:02.646Z,1021.16
2018-08-10T01:21:02.695Z,1021.16
2018-08-10T01:22:02.778Z,1021.19
2018-08-10T01:23:02.817Z,1021.23
2018-08-10T01:24:02.706Z,1021.27
2018-08-10T01:25:02.858Z,1021.27
2018-08-10T01:26:02.831Z,1021.3
2018-08-10T01:27:02.803Z,1021.38
2018-08-10T01:28:02.746Z,1021.4
2018-08-10T01:29:03.042Z,1021.43
2018-08-10T01:30:02.790Z,1021.39
2018-08-10T01:31:02.880Z,1021.45
2018-08-10T01:32:02.888Z,1021.45
2018-08-10T01:33:02.881Z,1021.45
2018-08-10T01:34:02.904Z,1021.43
2018-08-10T01:35:02.742Z,1021.47
2018-08-10T01:36:02.880Z,1021.47
2018-08-10T01:37:02.662Z,1021.56
2018-08-10T01:38:02.687Z,1021.58
2018-08-10T01:39:02.704Z,1021.6
2018-08-10T01:40:02.704Z,1021.61
2018-08-10T01:41:02.813Z,1021.61
2018-08-10T01:42:02.682Z,1021.64
2018-08-10T01:43:02.796Z,1021.65
2018-08-10T01:44:02.896Z,1021.65
2018-08-10T01:45:02.592Z,1021.68
2018-08-10T01:46:02.786Z,1021.71
2018-08-10T01:47:02.704Z,1021.71
2018-08-10T01:48:02.851Z,1021.71
2018-08-10T01:49:02.740Z,1021.67
2018-08-10T01:50:02.796Z,1021.76
2018-08-10T01:51:02.846Z,1021.71
2018-08-10T01:52:02.687Z,1021.74
2018-08-10T01:53:02.693Z,1021.75
2018-08-10T01:54:02.586Z,1021.77
2018-08-10T01:55:02.718Z,1021.81
2018-08-10T01:56:02.636Z,1021.74
2018-08-10T01:57:02.878Z,1021.77
2018-08-10T01:58:02.717Z,1021.77
2018-08-10T01:59:02.818Z,1021.78
2018-08-10T02:00:02.721Z,1021.82
2018-08-10T02:01:02.834Z,1021.81
2018-08-10T02:02:02.813Z,1021.85
2018-08-10T02:03:02.646Z,1021.88
2018-08-10T02:04:02.828Z,1021.85
2018-08-10T02:05:02.797Z,1021.94
2018-08-10T02:06:02.608Z,1021.93
2018-08-10T02:07:02.610Z,1021.88
2018-08-10T02:08:02.827Z,1021.96
2018-08-10T02:09:02.981Z,1021.9
2018-08-10T02:10:02.917Z,1021.93
2018-08-10T02:11:02.655Z,1021.89
2018-08-10T02:12:02.537Z,1021.91
2018-08-10T02:13:02.769Z,1021.92
2018-08-10T02:14:02.836Z,1021.93
2018-08-10T02:15:02.770Z,1021.9
2018-08-10T02:16:02.748Z,1021.93
2018-08-10T02:17:03.017Z,1021.9
2018-08-10T02:18:02.740Z,1021.96
2018-08-10T02:19:02.827Z,1021.97
2018-08-10T02:20:02.653Z,1022
2018-08-10T02:21:02.571Z,1022.03
2018-08-10T02:22:02.919Z,1021.99
2018-08-10T02:23:02.759Z,1022.02
2018-08-10T02:24:02.743Z,1022.04
2018-08-10T02:25:02.730Z,1022.07
2018-08-10T02:26:02.627Z,1022.08
2018-08-10T02:27:02.690Z,1022.07
2018-08-10T02:28:02.593Z,1022.07
2018-08-10T02:29:02.858Z,1022.11
2018-08-10T02:30:03.028Z,1022.09
2018-08-10T02:31:02.639Z,1022.08
2018-08-10T02:32:02.821Z,1022.11
2018-08-10T02:33:02.797Z,1022.08
2018-08-10T02:34:02.736Z,1022.07
2018-08-10T02:35:02.781Z,1022.07
2018-08-10T02:36:02.753Z,1022.08
2018-08-10T02:37:02.849Z,1022.08
2018-08-10T02:38:02.659Z,1022.1
2018-08-10T02:39:02.734Z,1022.08
2018-08-10T02:40:02.760Z,1022.11
2018-08-10T02:41:02.995Z,1022.02
2018-08-10T02:42:02.739Z,1022.02
2018-08-10T02:43:02.557Z,1022.01
2018-08-10T02:44:02.876Z,1022.01
2018-08-10T02:45:02.969Z,1022.05
2018-08-10T02:46:02.774Z,1022.03
2018-08-10T02:47:02.917Z,1022.12
2018-08-10T02:48:02.756Z,1022.15
2018-08-10T02:49:02.808Z,1022.19
2018-08-10T02:50:02.577Z,1022.22
2018-08-10T02:51:02.762Z,1022.25
2018-08-10T02:52:02.657Z,1022.28
2018-08-10T02:53:02.866Z,1022.3
2018-08-10T02:54:02.843Z,1022.3
2018-08-10T02:55:02.752Z,1022.36
2018-08-10T02:56:02.786Z,1022.36
2018-08-10T02:57:02.756Z,1022.39
2018-08-10T02:58:02.609Z,1022.42
2018-08-10T02:59:02.597Z,1022.44
2018-08-10T03:00:02.772Z,1022.41
2018-08-10T03:01:02.617Z,1022.46
2018-08-10T03:02:02.769Z,1022.5
2018-08-10T03:03:02.705Z,1022.52
2018-08-10T03:04:02.656Z,1022.52
2018-08-10T03:05:02.831Z,1022.5
2018-08-10T03:06:02.687Z,1022.58
2018-08-10T03:07:02.775Z,1022.56
2018-08-10T03:08:02.714Z,1022.6
2018-08-10T03:09:02.671Z,1022.58
2018-08-10T03:10:02.455Z,1022.63
2018-08-10T03:11:02.684Z,1022.59
2018-08-10T03:12:02.658Z,1022.66
2018-08-10T03:13:02.911Z,1022.65
2018-08-10T03:14:02.639Z,1022.69
2018-08-10T03:15:02.749Z,1022.7
2018-08-10T03:16:02.940Z,1022.73
2018-08-10T03:17:02.736Z,1022.7
2018-08-10T03:18:02.623Z,1022.72
2018-08-10T03:19:02.763Z,1022.71
2018-08-10T03:20:02.898Z,1022.68
2018-08-10T03:21:02.758Z,1022.75
2018-08-10T03:22:02.874Z,1022.75
2018-08-10T03:23:02.701Z,1022.75
2018-08-10T03:24:02.760Z,1022.74
2018-08-10T03:25:03.007Z,1022.76
2018-08-10T03:26:03.095Z,1022.76
2018-08-10T03:27:02.851Z,1022.76
2018-08-10T03:28:02.622Z,1022.79
2018-08-10T03:29:02.910Z,1022.81
2018-08-10T03:30:02.721Z,1022.83
2018-08-10T03:31:02.867Z,1022.85
2018-08-10T03:32:02.685Z,1022.89
2018-08-10T03:33:02.895Z,1022.88
2018-08-10T03:34:02.803Z,1022.89
2018-08-10T03:35:02.796Z,1022.91
2018-08-10T03:36:02.654Z,1022.97
2018-08-10T03:37:02.700Z,1022.96
2018-08-10T03:38:02.915Z,1023
2018-08-10T03:39:02.701Z,1022.98
2018-08-10T03:40:02.806Z,1022.99
2018-08-10T03:41:02.974Z,1023
2018-08-10T03:42:03.030Z,1023.02
2018-08-10T03:43:02.661Z,1023.03
2018-08-10T03:44:02.675Z,1023.03
2018-08-10T03:45:02.866Z,1023.07
2018-08-10T03:46:02.690Z,1023.1
2018-08-10T03:47:02.599Z,1023.09
2018-08-10T03:48:02.800Z,1023.15
2018-08-10T03:49:02.870Z,1023.14
2018-08-10T03:50:02.640Z,1023.17
2018-08-10T03:51:02.873Z,1023.2
2018-08-10T03:52:02.781Z,1023.2
2018-08-10T03:53:02.711Z,1023.18
2018-08-10T03:54:02.742Z,1023.21
2018-08-10T03:55:02.776Z,1023.24
2018-08-10T03:56:02.794Z,1023.26
2018-08-10T03:57:02.858Z,1023.28
2018-08-10T03:58:02.634Z,1023.26
2018-08-10T03:59:02.807Z,1023.3
2018-08-10T04:00:02.696Z,1023.3
2018-08-10T04:01:02.828Z,1023.29
2018-08-10T04:02:02.965Z,1023.27
2018-08-10T04:03:02.729Z,1023.3
2018-08-10T04:04:02.517Z,1023.32
2018-08-10T04:05:02.679Z,1023.32
2018-08-10T04:06:02.721Z,1023.35
2018-08-10T04:07:02.772Z,1023.32
2018-08-10T04:08:02.661Z,1023.39
2018-08-10T04:09:02.641Z,1023.36
2018-08-10T04:10:02.769Z,1023.38
2018-08-10T04:11:02.797Z,1023.41
2018-08-10T04:12:02.886Z,1023.42
2018-08-10T04:13:02.540Z,1023.48
2018-08-10T04:14:02.778Z,1023.47
2018-08-10T04:15:02.763Z,1023.52
2018-08-10T04:16:02.785Z,1023.47
2018-08-10T04:17:02.697Z,1023.51
2018-08-10T04:18:02.791Z,1023.53
2018-08-10T04:19:02.642Z,1023.55
2018-08-10T04:20:02.829Z,1023.53
2018-08-10T04:21:02.823Z,1023.54
2018-08-10T04:22:02.689Z,1023.55
2018-08-10T04:23:02.683Z,1023.57
2018-08-10T04:24:02.709Z,1023.55
2018-08-10T04:25:02.607Z,1023.56
2018-08-10T04:26:02.912Z,1023.51
2018-08-10T04:27:02.773Z,1023.53
2018-08-10T04:28:02.876Z,1023.55
2018-08-10T04:29:02.771Z,1023.52
2018-08-10T04:30:02.906Z,1023.57
2018-08-10T04:31:02.777Z,1023.58
2018-08-10T04:32:02.818Z,1023.61
2018-08-10T04:33:02.775Z,1023.64
2018-08-10T04:34:02.667Z,1023.66
2018-08-10T04:35:03.012Z,1023.67
2018-08-10T04:36:02.648Z,1023.68
2018-08-10T04:37:02.752Z,1023.73
2018-08-10T04:38:02.776Z,1023.76
2018-08-10T04:39:02.811Z,1023.71
2018-08-10T04:40:02.708Z,1023.75
2018-08-10T04:41:02.600Z,1023.76
2018-08-10T04:42:02.728Z,1023.76
2018-08-10T04:43:02.655Z,1023.76
2018-08-10T04:44:02.791Z,1023.78
2018-08-10T04:45:02.904Z,1023.8
2018-08-10T04:46:02.764Z,1023.81
2018-08-10T04:47:02.632Z,1023.83
2018-08-10T04:48:02.908Z,1023.79
2018-08-10T04:49:02.575Z,1023.85
2018-08-10T04:50:02.735Z,1023.87
2018-08-10T04:51:03.072Z,1023.93
2018-08-10T04:52:02.734Z,1023.98
2018-08-10T04:53:02.743Z,1023.98
2018-08-10T04:54:02.769Z,1024.02
2018-08-10T04:55:03.036Z,1024.01
2018-08-10T04:56:02.601Z,1023.98
2018-08-10T04:57:02.753Z,1023.96
2018-08-10T04:58:02.716Z,1024
2018-08-10T04:59:02.644Z,1023.96
2018-08-10T05:00:02.680Z,1024.05
2018-08-10T05:01:02.718Z,1024.01
2018-08-10T05:02:02.680Z,1024.01
2018-08-10T05:03:02.672Z,1024.05
2018-08-10T05:04:03.011Z,1023.99
2018-08-10T05:05:02.711Z,1024.06
2018-08-10T05:06:02.507Z,1024.03
2018-08-10T05:07:02.639Z,1024.06
2018-08-10T05:08:02.791Z,1024.1
2018-08-10T05:09:02.842Z,1024.09
2018-08-10T05:10:02.701Z,1024.11
2018-08-10T05:11:02.703Z,1024.11
2018-08-10T05:12:02.835Z,1024.13
2018-08-10T05:13:02.766Z,1024.14
2018-08-10T05:14:02.963Z,1024.18
2018-08-10T05:15:02.700Z,1024.18
2018-08-10T05:16:02.566Z,1024.18
2018-08-10T05:17:03.034Z,1024.17
2018-08-10T05:18:02.882Z,1024.17
2018-08-10T05:19:02.807Z,1024.2
2018-08-10T05:20:02.845Z,1024.18
2018-08-10T05:21:02.712Z,1024.18
2018-08-10T05:22:02.743Z,1024.24
2018-08-10T05:23:02.708Z,1024.26
2018-08-10T05:24:02.904Z,1024.26
2018-08-10T05:25:02.569Z,1024.28
2018-08-10T05:26:02.784Z,1024.31
2018-08-10T05:27:02.748Z,1024.33
2018-08-10T05:28:02.681Z,1024.34
2018-08-10T05:29:02.587Z,1024.37
2018-08-10T05:30:02.674Z,1024.39
2018-08-10T05:31:02.772Z,1024.4
2018-08-10T05:32:02.725Z,1024.4
2018-08-10T05:33:02.797Z,1024.41
2018-08-10T05:34:02.561Z,1024.39
2018-08-10T05:35:02.638Z,1024.43
2018-08-10T05:36:02.635Z,1024.43
2018-08-10T05:37:02.600Z,1024.53
2018-08-10T05:38:02.665Z,1024.51
2018-08-10T05:39:02.789Z,1024.51
2018-08-10T05:40:02.470Z,1024.55
2018-08-10T05:41:02.678Z,1024.64
2018-08-10T05:42:02.771Z,1024.65
2018-08-10T05:43:02.538Z,1024.64
2018-08-10T05:44:02.787Z,1024.65
2018-08-10T05:45:02.789Z,1024.67
2018-08-10T05:46:02.630Z,1024.64
2018-08-10T05:47:02.989Z,1024.68
2018-08-10T05:48:02.993Z,1024.62
2018-08-10T05:49:02.747Z,1024.61
2018-08-10T05:50:02.617Z,1024.61
2018-08-10T05:51:03.010Z,1024.6
2018-08-10T05:52:02.723Z,1024.65
2018-08-10T05:53:02.888Z,1024.66
2018-08-10T05:54:02.875Z,1024.66
2018-08-10T05:55:02.717Z,1024.68
2018-08-10T05:56:02.629Z,1024.71
2018-08-10T05:57:02.775Z,1024.66
2018-08-10T05:58:02.701Z,1024.71
2018-08-10T05:59:02.757Z,1024.71
2018-08-10T06:00:02.735Z,1024.74
2018-08-10T06:01:02.716Z,1024.73
2018-08-10T06:02:02.649Z,1024.77
2018-08-10T06:03:02.827Z,1024.76
2018-08-10T06:04:03.358Z,1024.74
2018-08-10T06:05:02.793Z,1024.77
2018-08-10T06:06:02.744Z,1024.76
2018-08-10T06:07:02.599Z,1024.77
2018-08-10T06:08:02.712Z,1024.76
2018-08-10T06:09:02.700Z,1024.82
2018-08-10T06:10:02.632Z,1024.76
2018-08-10T06:11:02.792Z,1024.77
2018-08-10T06:12:02.788Z,1024.73
2018-08-10T06:13:02.870Z,1024.76
2018-08-10T06:14:02.784Z,1024.82
2018-08-10T06:15:02.907Z,1024.72
2018-08-10T06:16:02.611Z,1024.76
2018-08-10T06:17:02.834Z,1024.78
2018-08-10T06:18:02.717Z,1024.8
2018-08-10T06:19:02.814Z,1024.77
2018-08-10T06:20:03.147Z,1024.75
2018-08-10T06:21:02.556Z,1024.76
2018-08-10T06:22:02.788Z,1024.74
2018-08-10T06:23:02.759Z,1024.73
2018-08-10T06:24:02.810Z,1024.74
2018-08-10T06:25:03.244Z,1024.75
2018-08-10T06:26:02.678Z,1024.74
2018-08-10T06:27:02.689Z,1024.7
2018-08-10T06:28:02.582Z,1024.69
2018-08-10T06:29:02.772Z,1024.71
2018-08-10T06:30:02.828Z,1024.73
2018-08-10T06:31:02.690Z,1024.72
2018-08-10T06:32:02.809Z,1024.7
2018-08-10T06:33:02.728Z,1024.7
2018-08-10T06:34:03.236Z,1024.7
2018-08-10T06:35:02.947Z,1024.67
2018-08-10T06:36:02.579Z,1024.64
2018-08-10T06:37:02.522Z,1024.67
2018-08-10T06:38:02.611Z,1024.68
2018-08-10T06:39:02.752Z,1024.69
2018-08-10T06:40:02.823Z,1024.69
2018-08-10T06:41:02.740Z,1024.69
2018-08-10T06:42:02.504Z,1024.65
2018-08-10T06:43:03.209Z,1024.68
2018-08-10T06:44:02.813Z,1024.66
2018-08-10T06:45:03.127Z,1024.67
2018-08-10T06:46:02.652Z,1024.65
2018-08-10T06:47:02.630Z,1024.7
2018-08-10T06:48:02.685Z,1024.71
2018-08-10T06:49:02.663Z,1024.74
2018-08-10T06:50:02.694Z,1024.78
2018-08-10T06:51:02.809Z,1024.75
2018-08-10T06:52:02.769Z,1024.77
2018-08-10T06:53:02.685Z,1024.78
2018-08-10T06:54:02.857Z,1024.81
2018-08-10T06:55:02.748Z,1024.82
2018-08-10T06:56:03.014Z,1024.85
2018-08-10T06:57:02.579Z,1024.83
2018-08-10T06:58:02.617Z,1024.84
2018-08-10T06:59:02.701Z,1024.83
2018-08-10T07:00:02.559Z,1024.86
2018-08-10T07:01:02.890Z,1024.89
2018-08-10T07:02:02.659Z,1024.94
2018-08-10T07:03:02.836Z,1024.96
2018-08-10T07:04:02.677Z,1024.97
2018-08-10T07:05:02.714Z,1024.97
2018-08-10T07:06:02.653Z,1024.97
2018-08-10T07:07:02.765Z,1024.94
2018-08-10T07:08:02.528Z,1024.94
2018-08-10T07:09:02.523Z,1024.96
2018-08-10T07:10:02.733Z,1025.01
2018-08-10T07:11:02.615Z,1025.04
2018-08-10T07:12:02.789Z,1025.07
2018-08-10T07:13:02.785Z,1025.06
2018-08-10T07:14:02.674Z,1025.03
2018-08-10T07:15:02.780Z,1025.04
2018-08-10T07:16:02.622Z,1025.04
2018-08-10T07:17:02.752Z,1025.05
2018-08-10T07:18:02.740Z,1025.06
2018-08-10T07:19:02.738Z,1025.05
2018-08-10T07:20:02.713Z,1025.05
2018-08-10T07:21:02.759Z,1025.1
2018-08-10T07:22:02.745Z,1025.09
2018-08-10T07:23:03.021Z,1025.07
2018-08-10T07:24:02.580Z,1025.06
2018-08-10T07:25:02.749Z,1025
2018-08-10T07:26:02.722Z,1025.01
2018-08-10T07:27:02.846Z,1025
2018-08-10T07:28:02.628Z,1025.01
2018-08-10T07:29:02.613Z,1024.99
2018-08-10T07:30:02.668Z,1024.97
2018-08-10T07:31:02.682Z,1024.97
2018-08-10T07:32:02.618Z,1024.98
2018-08-10T07:33:02.504Z,1025
2018-08-10T07:34:02.733Z,1024.99
2018-08-10T07:35:02.791Z,1025.03
2018-08-10T07:36:02.607Z,1025.06
2018-08-10T07:37:02.568Z,1025.03
2018-08-10T07:38:02.653Z,1025.06
2018-08-10T07:39:02.591Z,1025.03
2018-08-10T07:40:02.735Z,1025.06
2018-08-10T07:41:02.624Z,1025.02
2018-08-10T07:42:02.908Z,1025.03
2018-08-10T07:43:02.527Z,1024.99
2018-08-10T07:44:02.728Z,1025.01
2018-08-10T07:45:02.725Z,1025.05
2018-08-10T07:46:02.735Z,1025.03
2018-08-10T07:47:02.733Z,1025.1
2018-08-10T07:48:02.698Z,1025.15
2018-08-10T07:49:02.652Z,1025.14
2018-08-10T07:50:02.632Z,1025.09
2018-08-10T07:51:02.566Z,1025.13
2018-08-10T07:52:02.910Z,1025.2
2018-08-10T07:53:02.743Z,1025.14
2018-08-10T07:54:02.787Z,1025.16
2018-08-10T07:55:02.798Z,1025.17
2018-08-10T07:56:02.576Z,1025.17
2018-08-10T07:57:02.718Z,1025.17
2018-08-10T07:58:02.752Z,1025.17
2018-08-10T07:59:02.769Z,1025.15
2018-08-10T08:00:02.555Z,1025.21
2018-08-10T08:01:02.739Z,1025.17
2018-08-10T08:02:02.742Z,1025.17
2018-08-10T08:03:02.759Z,1025.18
2018-08-10T08:04:02.669Z,1025.18
2018-08-10T08:05:02.744Z,1025.22
2018-08-10T08:06:02.824Z,1025.23
2018-08-10T08:07:02.996Z,1025.24
2018-08-10T08:08:02.483Z,1025.26
2018-08-10T08:09:02.522Z,1025.31
2018-08-10T08:10:02.613Z,1025.34
2018-08-10T08:11:02.736Z,1025.32
2018-08-10T08:12:02.667Z,1025.32
2018-08-10T08:13:02.542Z,1025.31
2018-08-10T08:14:02.734Z,1025.32
2018-08-10T08:15:02.522Z,1025.31
2018-08-10T08:16:02.524Z,1025.38
2018-08-10T08:17:02.633Z,1025.31
2018-08-10T08:18:02.833Z,1025.31
2018-08-10T08:19:02.707Z,1025.32
2018-08-10T08:20:02.708Z,1025.33
2018-08-10T08:21:02.486Z,1025.32
2018-08-10T08:22:02.596Z,1025.34
2018-08-10T08:23:02.644Z,1025.37
2018-08-10T08:24:02.649Z,1025.33
2018-08-10T08:25:02.644Z,1025.35
2018-08-10T08:26:02.673Z,1025.29
2018-08-10T08:27:02.590Z,1025.29
2018-08-10T08:28:02.614Z,1025.27
2018-08-10T08:29:02.645Z,1025.31
2018-08-10T08:30:02.720Z,1025.34
2018-08-10T08:31:02.747Z,1025.36
2018-08-10T08:32:02.750Z,1025.33
2018-08-10T08:33:02.515Z,1025.37
2018-08-10T08:34:02.836Z,1025.34
2018-08-10T08:35:02.966Z,1025.33
2018-08-10T08:36:02.519Z,1025.32
2018-08-10T08:37:02.972Z,1025.32
2018-08-10T08:38:02.505Z,1025.29
2018-08-10T08:39:02.797Z,1025.38
2018-08-10T08:40:02.651Z,1025.38
2018-08-10T08:41:02.879Z,1025.37
2018-08-10T08:42:02.568Z,1025.39
2018-08-10T08:43:02.695Z,1025.38
2018-08-10T08:44:02.653Z,1025.35
2018-08-10T08:45:02.540Z,1025.38
2018-08-10T08:46:03.598Z,1025.37
2018-08-10T08:47:02.747Z,1025.36
2018-08-10T08:48:02.644Z,1025.34
2018-08-10T08:49:02.685Z,1025.36
2018-08-10T08:50:02.945Z,1025.34
2018-08-10T08:51:02.575Z,1025.35
2018-08-10T08:52:02.583Z,1025.35
2018-08-10T08:53:02.601Z,1025.36
2018-08-10T08:54:02.645Z,1025.37
2018-08-10T08:55:02.694Z,1025.38
2018-08-10T08:56:02.786Z,1025.33
2018-08-10T08:57:02.522Z,1025.35
2018-08-10T08:58:02.724Z,1025.32
2018-08-10T08:59:02.779Z,1025.36
2018-08-10T09:00:02.805Z,1025.35
2018-08-10T09:01:02.672Z,1025.32
2018-08-10T09:02:02.637Z,1025.29
2018-08-10T09:03:02.643Z,1025.29
2018-08-10T09:04:02.561Z,1025.24
2018-08-10T09:05:02.769Z,1025.3
2018-08-10T09:06:02.715Z,1025.27
2018-08-10T09:07:02.678Z,1025.19
2018-08-10T09:08:02.725Z,1025.16
2018-08-10T09:09:02.628Z,1025.19
2018-08-10T09:10:02.806Z,1025.22
2018-08-10T09:11:02.574Z,1025.22
2018-08-10T09:12:02.571Z,1025.23
2018-08-10T09:13:02.802Z,1025.22
2018-08-10T09:14:02.734Z,1025.19
2018-08-10T09:15:02.732Z,1025.17
2018-08-10T09:16:02.622Z,1025.19
2018-08-10T09:17:02.962Z,1025.16
2018-08-10T09:18:02.728Z,1025.2
2018-08-10T09:19:02.750Z,1025.21
2018-08-10T09:20:02.730Z,1025.2
2018-08-10T09:21:02.779Z,1025.21
2018-08-10T09:22:02.760Z,1025.23
2018-08-10T09:23:02.719Z,1025.23
2018-08-10T09:24:02.675Z,1025.25
2018-08-10T09:25:02.756Z,1025.23
2018-08-10T09:26:02.517Z,1025.22
2018-08-10T09:27:03.198Z,1025.25
2018-08-10T09:28:02.781Z,1025.26
2018-08-10T09:29:02.636Z,1025.27
2018-08-10T09:30:02.848Z,1025.29
2018-08-10T09:31:02.675Z,1025.24
2018-08-10T09:32:02.514Z,1025.22
2018-08-10T09:33:02.696Z,1025.24
2018-08-10T09:34:02.668Z,1025.25
2018-08-10T09:35:02.716Z,1025.22
2018-08-10T09:36:02.580Z,1025.23
2018-08-10T09:37:02.618Z,1025.22
2018-08-10T09:38:02.565Z,1025.19
2018-08-10T09:39:02.520Z,1025.22
2018-08-10T09:40:02.527Z,1025.19
2018-08-10T09:41:02.480Z,1025.25
2018-08-10T09:42:02.738Z,1025.17
2018-08-10T09:43:02.527Z,1025.15
2018-08-10T09:44:02.700Z,1025.13
2018-08-10T09:45:02.752Z,1025.1
2018-08-10T09:46:02.540Z,1025.14
2018-08-10T09:47:02.702Z,1025.14
2018-08-10T09:48:02.665Z,1025.16
2018-08-10T09:49:02.492Z,1025.13
2018-08-10T09:50:02.443Z,1025.14
2018-08-10T09:51:02.696Z,1025.14
2018-08-10T09:52:02.554Z,1025.11
2018-08-10T09:53:02.736Z,1025.12
2018-08-10T09:54:02.515Z,1025.11
2018-08-10T09:55:02.546Z,1025.11
2018-08-10T09:56:02.869Z,1025.14
2018-08-10T09:57:02.677Z,1025.17
2018-08-10T09:58:02.636Z,1025.14
2018-08-10T09:59:02.883Z,1025.14
2018-08-10T10:00:02.789Z,1025.11
2018-08-10T10:01:02.752Z,1025.1
2018-08-10T10:02:02.615Z,1025.13
2018-08-10T10:03:02.756Z,1025.15
2018-08-10T10:04:02.816Z,1025.18
2018-08-10T10:05:02.791Z,1025.13
2018-08-10T10:06:02.758Z,1025.09
2018-08-10T10:07:02.598Z,1025.12
2018-08-10T10:08:02.747Z,1025.11
2018-08-10T10:09:02.793Z,1025.07
2018-08-10T10:10:02.510Z,1025.13
2018-08-10T10:11:02.515Z,1025.11
2018-08-10T10:12:02.518Z,1025.1
2018-08-10T10:13:02.559Z,1025.13
2018-08-10T10:14:02.552Z,1025.13
2018-08-10T10:15:02.637Z,1025.11
2018-08-10T10:16:02.993Z,1025.1
2018-08-10T10:17:02.703Z,1025.07
2018-08-10T10:18:02.840Z,1025.07
2018-08-10T10:19:02.667Z,1025.04
2018-08-10T10:20:02.704Z,1025.02
2018-08-10T10:21:02.747Z,1025.01
2018-08-10T10:22:02.726Z,1025
2018-08-10T10:23:02.503Z,1025
2018-08-10T10:24:02.835Z,1025.01
2018-08-10T10:25:02.745Z,1025.02
2018-08-10T10:26:02.670Z,1025.05
2018-08-10T10:27:02.839Z,1024.98
2018-08-10T10:28:02.744Z,1024.98
2018-08-10T10:29:02.648Z,1024.99
2018-08-10T10:30:02.483Z,1024.96
2018-08-10T10:31:02.771Z,1025
2018-08-10T10:32:02.590Z,1025
2018-08-10T10:33:02.729Z,1025.02
2018-08-10T10:34:02.727Z,1024.95
2018-08-10T10:35:02.750Z,1024.95
2018-08-10T10:36:02.525Z,1024.95
2018-08-10T10:37:02.601Z,1025.04
2018-08-10T10:38:02.635Z,1025.05
2018-08-10T10:39:02.458Z,1025.03
2018-08-10T10:40:02.400Z,1025.01
2018-08-10T10:41:02.419Z,1025.04
2018-08-10T10:42:02.781Z,1025.04
2018-08-10T10:43:02.457Z,1025.04
2018-08-10T10:44:02.795Z,1025.01
2018-08-10T10:45:02.590Z,1024.99
2018-08-10T10:46:02.490Z,1025
2018-08-10T10:47:02.585Z,1025.01
2018-08-10T10:48:02.863Z,1024.96
2018-08-10T10:49:02.557Z,1024.96
2018-08-10T10:50:02.434Z,1024.98
2018-08-10T10:51:02.889Z,1024.97
2018-08-10T10:52:02.555Z,1024.99
2018-08-10T10:53:02.589Z,1025.01
2018-08-10T10:54:02.718Z,1024.93
2018-08-10T10:55:02.512Z,1024.95
2018-08-10T10:56:02.504Z,1024.96
2018-08-10T10:57:02.527Z,1024.91
2018-08-10T10:58:02.459Z,1024.95
2018-08-10T10:59:02.621Z,1024.96
2018-08-10T11:00:02.740Z,1024.96
2018-08-10T11:01:02.496Z,1024.96
2018-08-10T11:02:02.692Z,1024.96
2018-08-10T11:03:02.505Z,1024.95
2018-08-10T11:04:02.648Z,1024.93
2018-08-10T11:05:02.583Z,1024.89
2018-08-10T11:06:02.648Z,1024.88
2018-08-10T11:07:02.556Z,1024.92
2018-08-10T11:08:02.385Z,1024.9
2018-08-10T11:09:02.556Z,1024.89
2018-08-10T11:10:02.736Z,1024.87
2018-08-10T11:11:02.454Z,1024.92
2018-08-10T11:12:02.660Z,1024.84
2018-08-10T11:13:02.746Z,1024.88
2018-08-10T11:14:02.692Z,1024.8
2018-08-10T11:15:02.701Z,1024.82
2018-08-10T11:16:02.550Z,1024.77
2018-08-10T11:17:33.794Z,1024.77
2018-08-10T11:18:02.695Z,1024.73
2018-08-10T11:19:02.585Z,1024.73
2018-08-10T11:20:02.788Z,1024.81
2018-08-10T11:21:02.500Z,1024.79
2018-08-10T11:22:02.478Z,1024.82
2018-08-10T11:23:02.603Z,1024.76
2018-08-10T11:24:02.858Z,1024.79
2018-08-10T11:25:02.713Z,1024.76
2018-08-10T11:26:02.968Z,1024.74
2018-08-10T11:27:02.773Z,1024.72
2018-08-10T11:28:02.495Z,1024.7
2018-08-10T11:29:02.541Z,1024.73
2018-08-10T11:30:02.744Z,1024.67
2018-08-10T11:31:02.747Z,1024.65
2018-08-10T11:32:02.806Z,1024.67
2018-08-10T11:33:02.676Z,1024.68
2018-08-10T11:34:02.528Z,1024.71
2018-08-10T11:35:02.789Z,1024.71
2018-08-10T11:36:02.783Z,1024.75
2018-08-10T11:37:02.598Z,1024.72
2018-08-10T11:38:02.635Z,1024.69
2018-08-10T11:39:02.707Z,1024.65
2018-08-10T11:40:02.642Z,1024.63
2018-08-10T11:41:02.859Z,1024.57
2018-08-10T11:42:02.779Z,1024.59
2018-08-10T11:43:02.456Z,1024.58
2018-08-10T11:44:02.652Z,1024.57
2018-08-10T11:45:03.132Z,1024.55
2018-08-10T11:46:02.804Z,1024.59
2018-08-10T11:47:02.605Z,1024.54
2018-08-10T11:48:03.001Z,1024.54
2018-08-10T11:49:02.803Z,1024.53
2018-08-10T11:50:02.809Z,1024.53
2018-08-10T11:51:02.466Z,1024.5
2018-08-10T11:52:02.569Z,1024.5
2018-08-10T11:53:02.647Z,1024.44
2018-08-10T11:54:02.539Z,1024.45
2018-08-10T11:55:02.494Z,1024.46
2018-08-10T11:56:02.417Z,1024.44
2018-08-10T11:57:02.868Z,1024.42
2018-08-10T11:58:02.756Z,1024.43
2018-08-10T11:59:02.730Z,1024.42
2018-08-10T12:00:02.716Z,1024.38
2018-08-10T12:01:02.819Z,1024.47
2018-08-10T12:02:02.802Z,1024.43
2018-08-10T12:03:02.813Z,1024.47
2018-08-10T12:04:02.484Z,1024.41
2018-08-10T12:05:02.752Z,1024.41
2018-08-10T12:06:02.980Z,1024.38
2018-08-10T12:07:02.602Z,1024.35
2018-08-10T12:08:02.634Z,1024.39